Time;durP1;ratioP1;P1;durP2;ratioP2;P2;SDS_P1;SDS_P2;PMS_P1;PMS_P2;Temp;Humidity;BMP_temperature;BMP_pressure;BME280_temperature;BME280_humidity;BME280_pressure;Samples;Min_cycle;Max_cycle;Signal;HPM_P1;HPM_P2
2023/05/30 00:01:18;;;;;;;6.88;4.38;;;;;;;17.96;83.36;99491.88;3132281;28;20059;-63
2023/05/30 00:02:50;;;;;;;10.60;4.72;;;;;;;17.92;83.71;99491.31;3137422;28;20571;-63
2023/05/30 00:04:23;;;;;;;7.30;4.70;;;;;;;17.92;83.78;99495.69;3149247;28;20051;-63
2023/05/30 00:05:56;;;;;;;8.55;4.35;;;;;;;17.91;83.66;99486.97;3153760;28;20490;-63
2023/05/30 00:07:28;;;;;;;;;;;;;;;17.72;84.31;99492.84;3154201;28;20555;-63
2023/05/30 00:09:00;;;;;;;10.48;4.90;;;;;;;17.78;84.63;99486.28;3153624;28;20445;-63
2023/05/30 00:10:32;;;;;;;10.70;4.38;;;;;;;17.91;84.14;99494.88;3149580;28;20434;-63
2023/05/30 00:12:04;;;;;;;12.85;4.93;;;;;;;17.96;83.85;99491.88;3148859;28;20056;-64
2023/05/30 00:13:37;;;;;;;8.18;4.50;;;;;;;17.96;83.80;99492.72;3145453;28;20043;-64
2023/05/30 00:15:10;;;;;;;6.47;4.55;;;;;;;17.98;83.67;99497.00;3153338;28;20695;-64
2023/05/30 00:16:43;;;;;;;5.60;3.90;;;;;;;17.98;83.50;99489.09;3132199;28;20106;-63
2023/05/30 00:18:14;;;;;;;8.25;4.22;;;;;;;17.99;83.43;99493.44;3141200;28;20113;-63
2023/05/30 00:19:45;;;;;;;8.88;4.38;;;;;;;17.96;83.47;99492.72;3140879;28;20597;-64
2023/05/30 00:21:19;;;;;;;5.93;3.70;;;;;;;17.88;83.07;99479.31;3141157;28;20053;-64
2023/05/30 00:22:51;;;;;;;8.38;3.58;;;;;;;17.89;83.16;99488.88;3152966;28;20584;-64
2023/05/30 00:24:49;;;;;;;8.98;3.95;;;;;;;17.86;82.85;99489.13;3149973;28;20048;-64
2023/05/30 00:26:21;;;;;;;9.27;3.90;;;;;;;17.79;82.90;99487.97;3135782;28;20138;-64
2023/05/30 00:27:53;;;;;;;6.45;3.70;;;;;;;17.80;82.77;99484.34;3157512;28;20101;-64
2023/05/30 00:29:25;;;;;;;6.95;3.60;;;;;;;17.78;82.76;99486.28;3136278;28;20057;-63
2023/05/30 00:30:57;;;;;;;15.27;3.78;;;;;;;17.79;82.98;99487.13;3140303;28;20052;-64
2023/05/30 00:32:28;;;;;;;7.65;3.80;;;;;;;17.76;82.80;99488.19;3146480;28;20473;-63
2023/05/30 00:34:00;;;;;;;7.70;3.55;;;;;;;17.74;82.79;99482.19;3158240;28;20048;-63
2023/05/30 00:35:32;;;;;;;6.03;3.50;;;;;;;17.75;82.73;99489.16;3153717;28;20051;-63
2023/05/30 00:37:05;;;;;;;6.97;3.42;;;;;;;17.80;82.44;99476.44;3157100;28;20056;-63
2023/05/30 00:38:37;;;;;;;5.22;3.65;;;;;;;17.77;82.67;99487.19;3157726;28;20524;-63
2023/05/30 00:40:09;;;;;;;5.95;3.17;;;;;;;17.79;82.66;99482.69;3146032;28;20049;-64
2023/05/30 00:41:41;;;;;;;7.45;4.43;;;;;;;17.77;82.54;99487.19;3145809;28;20052;-63
2023/05/30 00:43:15;;;;;;;7.32;3.40;;;;;;;17.75;82.82;99483.88;3154168;28;20047;-63
2023/05/30 00:44:47;;;;;;;7.10;3.15;;;;;;;17.73;82.83;99477.88;3158540;28;20090;-64
2023/05/30 00:46:19;;;;;;;5.40;3.88;;;;;;;17.76;82.73;99487.34;3147311;28;20048;-64
2023/05/30 00:47:53;;;;;;;9.90;3.60;;;;;;;17.76;83.13;99490.81;3145529;28;20056;-63
2023/05/30 00:49:25;;;;;;;7.68;3.45;;;;;;;17.77;82.95;99496.91;3148620;28;20453;-63
2023/05/30 00:50:57;;;;;;;6.32;3.28;;;;;;;17.77;82.90;99494.28;3143411;28;20040;-63
2023/05/30 00:52:31;;;;;;;10.07;3.60;;;;;;;17.76;83.17;99497.88;3158323;28;20422;-63
2023/05/30 00:54:04;;;;;;;6.97;3.47;;;;;;;17.76;83.04;99493.44;3153315;28;20056;-64
2023/05/30 00:55:36;;;;;;;7.88;3.55;;;;;;;17.73;82.94;99489.25;3148541;28;20102;-64
2023/05/30 00:57:09;;;;;;;5.80;3.60;;;;;;;17.76;83.29;99488.19;3158249;28;20449;-63
2023/05/30 00:58:40;;;;;;;6.55;3.63;;;;;;;17.78;83.07;99491.56;3158100;28;20047;-63
2023/05/30 01:00:13;;;;;;;6.95;3.25;;;;;;;17.78;83.08;99491.56;3157496;28;20044;-63
2023/05/30 01:01:45;;;;;;;6.78;3.40;;;;;;;17.76;83.07;99492.63;3145885;28;20056;-63
2023/05/30 01:03:22;;;;;;;9.57;3.20;;;;;;;17.79;83.25;99490.59;3133534;28;20048;-63
2023/05/30 01:04:53;;;;;;;7.05;3.40;;;;;;;17.77;82.96;99494.28;3133261;28;20052;-63
2023/05/30 01:06:27;;;;;;;6.82;3.38;;;;;;;17.81;82.82;99501.03;3143665;28;20085;-63
2023/05/30 01:08:01;;;;;;;5.57;3.30;;;;;;;17.84;83.13;99498.97;3145514;28;20052;-64
2023/05/30 01:09:32;;;;;;;6.43;3.58;;;;;;;17.82;82.94;99495.63;3145590;28;20598;-64
2023/05/30 01:11:13;;;;;;;6.68;3.13;;;;;;;17.89;82.85;99490.69;3145214;28;20513;-64
2023/05/30 01:12:54;;;;;;;7.45;3.55;;;;;;;17.87;82.96;99496.09;3155920;28;20051;-63
2023/05/30 01:14:32;;;;;;;10.73;4.13;;;;;;;17.87;83.05;99496.09;3147259;28;20114;-64
2023/05/30 01:16:09;;;;;;;6.10;3.15;;;;;;;17.86;82.76;99489.13;3142976;28;20061;-63
2023/05/30 01:17:52;;;;;;;9.63;3.15;;;;;;;17.88;82.56;99500.38;3144362;28;20084;-63
2023/05/30 01:19:47;;;;;;;8.88;3.72;;;;;;;17.86;82.57;99494.41;3157141;28;20056;-63
2023/05/30 01:21:22;;;;;;;5.45;2.83;;;;;;;17.89;82.56;99502.06;3157734;28;20505;-64
2023/05/30 01:23:18;;;;;;;3.95;2.72;;;;;;;17.89;82.58;99502.06;3152849;28;20044;-63
2023/05/30 01:25:07;;;;;;;7.65;2.88;;;;;;;17.90;82.57;99506.38;3148812;28;20215;-64
2023/05/30 01:27:04;;;;;;;13.10;3.58;;;;;;;17.88;82.44;99503.03;3152807;28;20052;-64
2023/05/30 01:28:39;;;;;;;9.82;3.72;;;;;;;17.86;82.77;99494.41;3153836;28;20083;-64
2023/05/30 01:30:10;;;;;;;4.25;2.72;;;;;;;17.86;82.77;99501.47;3156579;28;20051;-64
2023/05/30 01:31:43;;;;;;;5.57;2.83;;;;;;;17.88;82.41;99505.66;3140740;28;20540;-64
2023/05/30 01:33:15;;;;;;;4.97;2.83;;;;;;;17.88;82.63;99492.50;3144691;28;20059;-64
2023/05/30 01:34:47;;;;;;;5.88;3.28;;;;;;;17.85;82.56;99498.00;3150976;28;20448;-64
2023/05/30 01:36:18;;;;;;;5.05;3.10;;;;;;;17.87;82.57;99496.09;3151223;28;20044;-64
2023/05/30 01:37:50;;;;;;;7.97;3.42;;;;;;;17.89;82.45;99498.59;3153288;28;20187;-64
2023/05/30 01:39:22;;;;;;;5.82;3.25;;;;;;;17.91;82.55;99488.78;3157683;28;20440;-62
2023/05/30 01:40:56;;;;;;;8.63;3.47;;;;;;;17.92;82.26;99493.94;3155008;28;21627;-63
2023/05/30 01:42:31;;;;;;;8.40;3.20;;;;;;;17.88;82.30;99483.75;3146384;28;20052;-63
2023/05/30 01:44:07;;;;;;;7.40;3.33;;;;;;;17.87;82.25;99488.19;3149676;28;20514;-63
2023/05/30 01:45:46;;;;;;;5.25;3.42;;;;;;;17.87;82.27;99496.09;3155327;28;20181;-63
2023/05/30 01:47:26;;;;;;;9.57;3.83;;;;;;;17.85;82.17;99494.53;3157930;28;20055;-63
2023/05/30 01:49:07;;;;;;;7.53;3.78;;;;;;;17.84;82.67;99492.88;3157693;28;20819;-63
2023/05/30 01:50:44;;;;;;;9.55;3.42;;;;;;;17.83;82.56;99493.81;3138226;28;20147;-63
2023/05/30 01:52:21;;;;;;;10.05;3.60;;;;;;;17.82;82.57;99492.16;3144838;28;20131;-63
2023/05/30 01:53:59;;;;;;;5.45;3.05;;;;;;;17.80;82.75;99479.09;3148721;28;20117;-63
2023/05/30 01:55:33;;;;;;;7.05;3.80;;;;;;;17.81;82.76;99490.50;3136109;28;20110;-63
2023/05/30 01:57:08;;;;;;;8.30;3.55;;;;;;;17.81;82.90;99486.06;3157449;28;20059;-63
2023/05/30 01:58:40;;;;;;;8.35;3.50;;;;;;;17.81;82.91;99487.84;3157520;28;20452;-63
2023/05/30 02:00:16;;;;;;;6.75;3.83;;;;;;;17.79;82.77;99485.31;3142899;28;20447;-63
2023/05/30 02:01:49;;;;;;;9.45;3.78;;;;;;;17.85;82.79;99486.63;3132818;28;20118;-63
2023/05/30 02:03:23;;;;;;;8.50;3.25;;;;;;;17.87;82.66;99495.25;3144956;28;20059;-63
2023/05/30 02:04:55;;;;;;;6.32;3.33;;;;;;;17.86;82.65;99486.50;3145150;28;20083;-63
2023/05/30 02:06:27;;;;;;;9.25;3.42;;;;;;;17.86;82.65;99488.28;3152983;28;20048;-63
2023/05/30 02:07:59;;;;;;;9.63;3.75;;;;;;;17.85;82.84;99484.84;3156476;28;20127;-63
2023/05/30 02:09:31;;;;;;;9.50;4.50;;;;;;;17.86;82.55;99486.50;3146667;28;20054;-63
2023/05/30 02:11:03;;;;;;;8.30;3.50;;;;;;;17.88;82.58;99487.22;3144529;28;20063;-63
2023/05/30 02:12:34;;;;;;;8.25;3.67;;;;;;;17.76;82.13;99472.38;3154355;28;20129;-63
2023/05/30 02:14:07;;;;;;;5.88;3.35;;;;;;;17.88;82.10;99489.84;3148807;28;20119;-62
2023/05/30 02:15:40;;;;;;;6.50;3.20;;;;;;;17.84;82.50;99485.81;3145369;28;20041;-62
2023/05/30 02:17:12;;;;;;;5.80;3.30;;;;;;;17.84;82.25;99490.25;3139400;28;20049;-63
2023/05/30 02:18:44;;;;;;;6.53;3.63;;;;;;;17.86;81.99;99494.41;3144581;28;20059;-63
2023/05/30 02:20:15;;;;;;;7.03;3.60;;;;;;;17.84;82.04;99483.16;3150574;28;20055;-63
2023/05/30 02:21:47;;;;;;;5.20;3.13;;;;;;;17.85;81.97;99484.00;3144185;28;20511;-63
2023/05/30 02:23:19;;;;;;;8.02;2.70;;;;;;;17.83;81.76;99484.09;3148995;28;20535;-63
2023/05/30 02:24:52;;;;;;;8.60;2.90;;;;;;;17.83;81.73;99475.38;3153294;28;20056;-63
2023/05/30 02:26:23;;;;;;;11.40;3.17;;;;;;;17.81;81.72;99478.16;3144849;28;20068;-63
2023/05/30 02:27:55;;;;;;;5.18;2.83;;;;;;;17.80;81.88;99475.63;3146495;28;20052;-63
2023/05/30 02:29:27;;;;;;;5.80;2.78;;;;;;;17.74;81.59;99475.13;3153914;28;20457;-63
2023/05/30 02:31:01;;;;;;;7.05;3.30;;;;;;;17.81;81.63;99485.22;3138652;28;20518;-63
2023/05/30 02:32:33;;;;;;;8.18;2.80;;;;;;;17.78;81.55;99481.03;3144551;28;20542;-63
2023/05/30 02:34:03;;;;;;;9.00;3.03;;;;;;;17.79;81.64;99487.97;3132348;28;20107;-63
2023/05/30 02:35:36;;;;;;;9.70;3.08;;;;;;;17.79;81.58;99492.41;3141401;28;20161;-63
2023/05/30 02:37:06;;;;;;;6.32;2.90;;;;;;;17.79;81.36;99485.31;3143612;28;20062;-63
2023/05/30 02:38:38;;;;;;;5.65;2.63;;;;;;;17.76;81.53;99493.44;3144317;28;20514;-63
2023/05/30 02:40:11;;;;;;;5.15;2.75;;;;;;;17.78;81.38;99488.94;3145746;28;20045;-64
2023/05/30 02:41:43;;;;;;;5.80;2.90;;;;;;;17.77;81.43;99494.28;3144859;28;20049;-63
2023/05/30 02:43:15;;;;;;;6.20;2.88;;;;;;;17.76;81.36;99488.19;3144420;28;20053;-63
2023/05/30 02:44:47;;;;;;;7.78;3.25;;;;;;;17.74;81.39;99490.91;3151940;28;20052;-63
2023/05/30 02:46:20;;;;;;;8.38;2.30;;;;;;;17.82;81.22;99494.78;3145915;28;20048;-64
2023/05/30 02:47:51;;;;;;;6.97;2.75;;;;;;;17.79;81.35;99495.84;3151206;28;20059;-63
2023/05/30 02:49:23;;;;;;;5.25;2.75;;;;;;;17.79;80.98;99498.50;3149908;28;20060;-63
2023/05/30 02:50:54;;;;;;;4.80;2.35;;;;;;;17.78;80.96;99496.84;3146061;28;20405;-63
2023/05/30 02:52:25;;;;;;;6.38;2.40;;;;;;;17.76;80.98;99503.16;3157075;28;20566;-63
2023/05/30 02:53:57;;;;;;;6.97;2.40;;;;;;;17.75;80.54;99499.69;3155595;28;20044;-63
2023/05/30 02:55:30;;;;;;;7.65;2.53;;;;;;;17.76;80.41;99500.50;3145589;28;20048;-63
2023/05/30 02:57:02;;;;;;;4.93;2.35;;;;;;;17.73;80.66;99499.78;3156424;28;20066;-63
2023/05/30 02:58:34;;;;;;;3.58;2.33;;;;;;;17.75;80.27;99502.31;3144634;28;20135;-64
2023/05/30 03:00:09;;;;;;;4.28;2.33;;;;;;;17.79;80.13;99502.94;3157038;28;20528;-64
2023/05/30 03:01:43;;;;;;;6.10;2.20;;;;;;;17.80;80.20;99496.69;3132844;28;20136;-63
2023/05/30 03:03:14;;;;;;;4.53;2.30;;;;;;;17.77;79.79;99505.63;3143777;28;20067;-64
2023/05/30 03:04:46;;;;;;;7.10;2.42;;;;;;;17.75;79.76;99504.94;3140779;28;20061;-63
2023/05/30 03:06:18;;;;;;;7.55;2.50;;;;;;;17.74;79.59;99509.34;3152471;28;20078;-64
2023/05/30 03:07:51;;;;;;;4.25;2.17;;;;;;;17.71;79.64;99500.88;3156642;28;20157;-64
2023/05/30 03:09:24;;;;;;;8.82;2.38;;;;;;;17.71;79.75;99506.13;3157014;28;20079;-64
2023/05/30 03:10:55;;;;;;;3.47;2.03;;;;;;;17.71;79.78;99511.41;3157049;28;20114;-63
2023/05/30 03:12:26;;;;;;;8.50;2.80;;;;;;;17.68;79.79;99503.75;3157174;28;20048;-64
2023/05/30 03:13:58;;;;;;;6.35;2.28;;;;;;;17.67;79.84;99510.81;3156807;28;20056;-63
2023/05/30 03:15:30;;;;;;;6.38;2.55;;;;;;;17.67;79.79;99516.06;3148003;28;20608;-63
2023/05/30 03:17:04;;;;;;;6.20;2.28;;;;;;;17.69;79.52;99521.25;3137123;28;20097;-63
2023/05/30 03:18:36;;;;;;;5.30;2.30;;;;;;;17.65;79.44;99510.09;3149278;28;20154;-62
2023/05/30 03:20:09;;;;;;;5.00;2.47;;;;;;;17.67;79.57;99510.81;3152568;28;20048;-64
2023/05/30 03:21:40;;;;;;;4.63;2.33;;;;;;;17.66;79.48;99510.94;3156968;28;20051;-63
2023/05/30 03:23:12;;;;;;;7.63;2.65;;;;;;;17.68;79.64;99522.19;3153887;28;20056;-63
2023/05/30 03:24:44;;;;;;;14.82;2.63;;;;;;;17.69;79.71;99513.34;3146332;28;20052;-63
2023/05/30 03:26:16;;;;;;;4.65;2.00;;;;;;;17.68;79.43;99516.91;3156703;28;20644;-63
2023/05/30 03:27:50;;;;;;;8.70;2.35;;;;;;;17.69;79.39;99508.06;3156864;28;20436;-63
2023/05/30 03:29:22;;;;;;;4.85;2.65;;;;;;;17.67;79.45;99513.44;3154371;28;20044;-63
2023/05/30 03:30:56;;;;;;;4.72;2.05;;;;;;;17.66;79.59;99514.41;3138714;28;20052;-63
2023/05/30 03:32:29;;;;;;;9.98;2.08;;;;;;;17.64;79.37;99518.94;3144245;28;20139;-63
2023/05/30 03:34:01;;;;;;;7.28;2.30;;;;;;;17.60;79.67;99511.41;3153135;28;20075;-63
2023/05/30 03:35:33;;;;;;;8.07;2.22;;;;;;;17.58;79.54;99514.19;3144022;28;20097;-63
2023/05/30 03:37:05;;;;;;;4.43;2.33;;;;;;;17.58;79.71;99513.34;3144358;28;20121;-63
2023/05/30 03:38:36;;;;;;;6.10;2.38;;;;;;;17.56;79.74;99517.88;3153966;28;20154;-63
2023/05/30 03:40:10;;;;;;;4.40;2.35;;;;;;;17.58;79.73;99522.06;3148487;28;20044;-62
2023/05/30 03:41:41;;;;;;;4.88;2.30;;;;;;;17.59;79.63;99515.00;3152718;28;20052;-63
2023/05/30 03:43:13;;;;;;;7.70;2.50;;;;;;;17.61;79.39;99521.00;3145512;28;20044;-63
2023/05/30 03:44:45;;;;;;;7.88;2.92;;;;;;;17.63;79.40;99524.31;3144177;28;20098;-63
2023/05/30 03:46:17;;;;;;;7.68;2.70;;;;;;;17.64;79.52;99526.03;3141766;28;20514;-62
2023/05/30 03:47:50;;;;;;;6.47;2.78;;;;;;;17.64;79.38;99526.03;3143501;28;20434;-62
2023/05/30 03:49:22;;;;;;;12.02;2.70;;;;;;;17.62;79.37;99536.66;3147817;28;20040;-63
2023/05/30 03:50:54;;;;;;;5.55;2.33;;;;;;;17.61;79.38;99529.72;3144217;28;20067;-63
2023/05/30 03:52:26;;;;;;;8.07;2.80;;;;;;;17.61;79.17;99537.63;3144343;28;20052;-63
2023/05/30 03:53:58;;;;;;;6.32;2.47;;;;;;;17.59;79.01;99536.06;3146836;28;20547;-63
2023/05/30 03:55:29;;;;;;;7.03;2.47;;;;;;;17.56;79.27;99544.22;3134655;28;20052;-63
2023/05/30 03:57:01;;;;;;;7.05;2.47;;;;;;;17.56;79.23;99545.03;3157498;28;20091;-63
2023/05/30 03:58:33;;;;;;;9.35;2.55;;;;;;;17.55;79.10;99550.44;3146528;28;20084;-63
2023/05/30 04:00:06;;;;;;;8.50;2.47;;;;;;;17.56;79.17;99547.69;3159080;28;20052;-63
2023/05/30 04:01:38;;;;;;;6.22;2.47;;;;;;;17.53;79.15;99545.28;3135544;28;20064;-63
2023/05/30 04:03:11;;;;;;;5.78;2.10;;;;;;;17.54;78.99;99548.75;3145208;28;20462;-63
2023/05/30 04:04:43;;;;;;;10.65;3.13;;;;;;;17.52;79.18;99551.50;3157229;28;20135;-62
2023/05/30 04:06:14;;;;;;;8.50;2.85;;;;;;;17.52;79.18;99541.81;3148038;28;20090;-62
2023/05/30 04:07:46;;;;;;;10.27;2.83;;;;;;;17.54;79.03;99552.25;3146012;28;20113;-62
2023/05/30 04:09:18;;;;;;;9.90;2.70;;;;;;;17.55;79.01;99558.34;3146517;28;20041;-62
2023/05/30 04:10:49;;;;;;;15.65;2.60;;;;;;;17.55;79.04;99559.19;3146024;28;20547;-63
2023/05/30 04:12:21;;;;;;;7.53;2.22;;;;;;;17.56;79.16;99552.09;3146280;28;20045;-62
2023/05/30 04:13:51;;;;;;;11.68;2.92;;;;;;;17.57;79.07;99559.03;3145126;28;20375;-62
2023/05/30 04:15:23;;;;;;;7.32;2.40;;;;;;;17.60;79.11;99562.28;3148389;28;20040;-62
2023/05/30 04:16:55;;;;;;;8.18;3.30;;;;;;;17.63;78.81;99559.41;3134266;28;20517;-62
2023/05/30 04:18:27;;;;;;;5.95;2.50;;;;;;;17.65;78.80;99556.66;3148628;28;20048;-62
2023/05/30 04:19:59;;;;;;;12.05;2.95;;;;;;;17.65;78.82;99557.47;3156897;28;20048;-63
2023/05/30 04:21:30;;;;;;;10.25;2.47;;;;;;;17.67;78.90;99562.66;3148544;28;20052;-63
2023/05/30 04:23:02;;;;;;;9.82;2.63;;;;;;;17.68;78.79;99559.03;3154160;28;20044;-64
2023/05/30 04:24:34;;;;;;;12.27;3.33;;;;;;;17.69;78.82;99560.75;3158770;28;20500;-64
2023/05/30 04:26:06;;;;;;;8.13;3.03;;;;;;;17.70;78.86;99563.25;3151385;28;20110;-64
2023/05/30 04:27:39;;;;;;;4.73;2.33;;;;;;;17.69;78.86;99561.56;3148574;28;20055;-63
2023/05/30 04:29:11;;;;;;;10.35;3.28;;;;;;;17.69;78.71;99566.84;3145836;28;20414;-63
2023/05/30 04:30:43;;;;;;;11.18;2.60;;;;;;;17.74;78.85;99563.81;3143104;28;20140;-63
2023/05/30 04:32:14;;;;;;;9.18;2.90;;;;;;;17.77;78.85;99562.75;3138812;28;20048;-63
2023/05/30 04:33:48;;;;;;;36.30;19.00;;;;;;;17.79;78.71;99566.16;3149597;28;20052;-63
2023/05/30 04:35:20;;;;;;;15.88;5.35;;;;;;;17.76;78.50;99567.19;3153174;28;20053;-62
2023/05/30 04:36:53;;;;;;;6.90;2.47;;;;;;;17.77;78.41;99568.84;3155699;28;20106;-63
2023/05/30 04:38:26;;;;;;;7.32;3.00;;;;;;;17.77;78.46;99568.84;3153247;28;20047;-63
2023/05/30 04:39:58;;;;;;;9.00;2.50;;;;;;;17.76;78.45;99571.63;3153113;28;20044;-62
2023/05/30 04:41:30;;;;;;;5.78;2.63;;;;;;;17.74;78.25;99574.38;3158391;28;20093;-62
2023/05/30 04:43:01;;;;;;;10.77;2.53;;;;;;;17.76;78.10;99579.53;3154742;28;20047;-65
2023/05/30 04:44:37;;;;;;;9.95;2.90;;;;;;;17.79;78.34;99572.25;3152226;28;20070;-63
2023/05/30 04:46:09;;;;;;;16.83;3.20;;;;;;;17.82;78.11;99579.06;3143258;28;20770;-63
2023/05/30 04:47:41;;;;;;;10.43;3.13;;;;;;;17.86;78.08;99577.84;3143638;28;20074;-62
2023/05/30 04:49:15;;;;;;;18.45;7.45;;;;;;;17.91;77.64;99578.34;3145573;28;20081;-64
2023/05/30 04:50:47;;;;;;;6.65;2.60;;;;;;;17.93;77.65;99579.06;3150075;28;20538;-64
2023/05/30 04:52:19;;;;;;;8.90;2.88;;;;;;;17.95;77.41;99578.00;3157570;28;20047;-64
2023/05/30 04:53:51;;;;;;;12.63;3.25;;;;;;;17.98;77.55;99581.31;3157725;28;20047;-65
2023/05/30 04:55:24;;;;;;;9.25;3.25;;;;;;;17.98;77.34;99581.31;3147176;28;20053;-67
2023/05/30 04:56:56;;;;;;;5.47;2.83;;;;;;;17.99;77.26;99583.00;3158304;28;20118;-64
2023/05/30 04:58:28;;;;;;;6.10;2.60;;;;;;;17.98;77.39;99579.53;3143079;28;20052;-62
2023/05/30 05:00:00;;;;;;;5.53;3.05;;;;;;;17.99;77.36;99583.00;3138039;28;20067;-62
2023/05/30 05:01:35;;;;;;;6.75;3.10;;;;;;;17.98;77.01;99586.59;3146490;28;20105;-62
2023/05/30 05:03:07;;;;;;;7.65;2.90;;;;;;;17.95;77.31;99588.53;3151315;28;20068;-66
2023/05/30 05:04:41;;;;;;;6.97;2.67;;;;;;;17.92;77.43;99583.50;3144593;28;20041;-64
2023/05/30 05:06:13;;;;;;;13.13;3.35;;;;;;;17.89;77.45;99593.41;3148986;28;20109;-63
2023/05/30 05:07:45;;;;;;;6.97;2.95;;;;;;;17.85;77.31;99584.09;3157676;28;20048;-64
2023/05/30 05:09:18;;;;;;;7.18;2.38;;;;;;;17.84;77.50;99590.34;3155552;28;20071;-63
2023/05/30 05:10:49;;;;;;;4.38;2.30;;;;;;;17.82;77.55;99592.25;3145570;28;20053;-63
2023/05/30 05:12:21;;;;;;;10.45;2.90;;;;;;;17.79;77.65;99588.03;3153015;28;20105;-62
2023/05/30 05:13:53;;;;;;;4.90;2.60;;;;;;;17.76;77.53;99601.44;3157002;28;20048;-64
2023/05/30 05:15:25;;;;;;;6.35;2.50;;;;;;;17.77;77.61;99599.63;3151357;28;20074;-65
2023/05/30 05:16:57;;;;;;;5.13;2.55;;;;;;;17.77;77.79;99604.91;3138000;28;20074;-63
2023/05/30 05:18:28;;;;;;;7.43;2.97;;;;;;;17.79;77.82;99601.22;3147390;28;20056;-66
2023/05/30 05:20:05;;;;;;;6.15;2.63;;;;;;;17.85;77.71;99605.16;3145811;28;20037;-63
2023/05/30 05:21:38;;;;;;;15.90;3.08;;;;;;;17.87;77.72;99604.09;3145234;28;20051;-62
2023/05/30 05:23:10;;;;;;;9.75;2.88;;;;;;;17.87;77.76;99605.91;3144946;28;20052;-62
2023/05/30 05:24:42;;;;;;;7.28;2.50;;;;;;;17.89;77.55;99602.16;3147407;28;20102;-63
2023/05/30 05:26:14;;;;;;;7.07;3.00;;;;;;;17.91;77.52;99602.88;3158034;28;20052;-64
2023/05/30 05:27:46;;;;;;;15.35;3.88;;;;;;;17.93;77.58;99603.63;3156887;28;20078;-64
2023/05/30 05:29:17;;;;;;;4.68;2.70;;;;;;;17.96;77.64;99605.16;3143418;28;20109;-64
2023/05/30 05:30:49;;;;;;;7.60;2.72;;;;;;;17.98;77.67;99605.88;3132853;28;20109;-66
2023/05/30 05:32:21;;;;;;;9.85;3.20;;;;;;;18.01;77.80;99610.88;3144496;28;20133;-66
2023/05/30 05:33:57;;;;;;;6.82;3.33;;;;;;;18.02;77.47;99615.22;3154570;28;20052;-65
2023/05/30 05:35:30;;;;;;;6.85;2.90;;;;;;;18.07;77.57;99612.19;3147065;28;20059;-66
2023/05/30 05:37:02;;;;;;;11.10;3.15;;;;;;;18.09;77.81;99610.28;3157551;28;20048;-66
2023/05/30 05:38:34;;;;;;;9.00;2.90;;;;;;;18.12;77.57;99616.16;3149902;28;20052;-65
2023/05/30 05:40:08;;;;;;;10.52;2.95;;;;;;;18.16;77.90;99608.84;3144515;28;20405;-65
2023/05/30 05:41:40;;;;;;;6.47;2.97;;;;;;;18.14;77.66;99616.06;3145157;28;20056;-65
2023/05/30 05:43:12;;;;;;;13.13;3.97;;;;;;;18.15;77.84;99612.44;3145105;28;20443;-65
2023/05/30 05:44:44;;;;;;;6.80;3.30;;;;;;;18.16;77.71;99606.19;3157334;28;20052;-65
2023/05/30 05:46:17;;;;;;;10.13;3.45;;;;;;;18.13;77.50;99616.97;3142442;28;20059;-67
2023/05/30 05:47:49;;;;;;;8.48;3.30;;;;;;;18.15;77.72;99615.06;3152942;28;20055;-67
2023/05/30 05:49:20;;;;;;;10.38;3.63;;;;;;;18.17;77.47;99616.63;3152354;28;20104;-66
2023/05/30 05:50:54;;;;;;;8.82;3.20;;;;;;;18.22;77.24;99618.06;3157371;28;20127;-65
2023/05/30 05:52:27;;;;;;;11.20;3.58;;;;;;;18.20;77.40;99623.47;3157489;28;20060;-67
2023/05/30 05:53:59;;;;;;;5.55;3.08;;;;;;;18.22;77.35;99618.06;3157252;28;20066;-64
2023/05/30 05:55:31;;;;;;;14.63;3.30;;;;;;;18.25;77.25;99618.66;3135932;28;20072;-64
2023/05/30 05:57:03;;;;;;;10.88;3.75;;;;;;;18.27;77.21;99616.72;3156070;28;20109;-65
2023/05/30 05:58:35;;;;;;;7.85;3.72;;;;;;;18.33;76.74;99616.22;3139524;28;20469;-65
2023/05/30 06:00:09;;;;;;;10.10;3.92;;;;;;;18.37;76.95;99615.03;3144553;28;20054;-65
2023/05/30 06:01:42;;;;;;;8.43;3.13;;;;;;;18.40;76.57;99621.88;3133360;28;20102;-65
2023/05/30 06:03:14;;;;;;;10.18;3.47;;;;;;;18.41;76.38;99616.47;3144112;28;20482;-66
2023/05/30 06:04:47;;;;;;;19.65;3.40;;;;;;;18.42;76.60;99617.28;3134178;28;20048;-65
2023/05/30 06:06:20;;;;;;;8.48;3.67;;;;;;;18.46;76.57;99616.09;3145041;28;20082;-65
2023/05/30 06:07:51;;;;;;;;;;;;;;;18.29;76.66;99613.97;3145441;28;20484;-66
2023/05/30 06:09:30;;;;;;;12.77;4.20;;;;;;;18.38;76.74;99616.72;3144694;28;19930;-65
2023/05/30 06:11:02;;;;;;;13.95;4.03;;;;;;;18.49;76.74;99620.31;3144654;28;20154;-65
2023/05/30 06:12:34;;;;;;;14.48;3.63;;;;;;;18.57;76.38;99620.50;3145002;28;20056;-67
2023/05/30 06:14:06;;;;;;;11.65;3.90;;;;;;;18.63;76.14;99625.25;3142693;28;20048;-67
2023/05/30 06:15:38;;;;;;;10.80;3.65;;;;;;;18.69;76.10;99630.03;3136301;28;20213;-66
2023/05/30 06:17:10;;;;;;;8.85;3.50;;;;;;;18.74;76.11;99624.44;3138333;28;20139;-65
2023/05/30 06:18:42;;;;;;;13.43;4.00;;;;;;;18.78;75.93;99626.72;3149725;28;20377;-64
2023/05/30 06:20:14;;;;;;;9.50;3.80;;;;;;;18.82;75.54;99632.56;3151534;28;20044;-65
2023/05/30 06:21:47;;;;;;;9.43;3.45;;;;;;;18.86;75.42;99628.69;3144493;28;20056;-65
2023/05/30 06:23:26;;;;;;;9.38;3.50;;;;;;;18.89;75.20;99636.34;3144495;28;20045;-63
2023/05/30 06:25:00;;;;;;;9.38;3.97;;;;;;;18.92;75.27;99632.63;3144871;28;20358;-64
2023/05/30 06:27:15;;;;;;;13.10;3.70;;;;;;;18.94;74.72;99633.34;3147455;28;20129;-64
2023/05/30 06:29:12;;;;;;;10.55;4.25;;;;;;;18.95;75.16;99640.28;3147329;28;20052;-65
2023/05/30 06:30:44;;;;;;;10.13;4.07;;;;;;;18.95;74.91;99637.66;3147231;28;20556;-65
2023/05/30 06:32:17;;;;;;;9.80;3.78;;;;;;;19.03;74.70;99637.88;3143042;28;20056;-64
2023/05/30 06:33:49;;;;;;;9.55;3.65;;;;;;;19.04;74.70;99635.09;3144881;28;20157;-64
2023/05/30 06:35:21;;;;;;;4.85;3.25;;;;;;;19.11;74.16;99635.44;3150939;28;20054;-66
2023/05/30 06:36:55;;;;;;;10.40;4.10;;;;;;;19.17;74.19;99637.56;3144475;28;20055;-63
2023/05/30 06:38:27;;;;;;;11.45;4.90;;;;;;;19.17;73.90;99642.00;3153046;28;20138;-63
2023/05/30 06:39:59;;;;;;;10.98;4.22;;;;;;;19.19;74.25;99640.06;3157093;28;20052;-63
2023/05/30 06:41:31;;;;;;;9.65;4.10;;;;;;;19.20;74.05;99644.38;3144009;28;20110;-64
2023/05/30 06:43:02;;;;;;;12.75;4.75;;;;;;;19.22;73.90;99643.28;3143892;28;20437;-64
2023/05/30 06:44:34;;;;;;;10.93;4.28;;;;;;;19.20;73.84;99637.31;3144395;28;20060;-63
2023/05/30 06:46:07;;;;;;;10.70;4.72;;;;;;;19.19;73.63;99643.53;3141504;28;20067;-64
2023/05/30 06:47:39;;;;;;;13.00;4.00;;;;;;;19.18;73.95;99644.50;3144945;28;20045;-65
2023/05/30 06:49:11;;;;;;;14.63;3.78;;;;;;;19.19;73.62;99648.81;3144451;28;20520;-63
2023/05/30 06:50:43;;;;;;;14.23;4.38;;;;;;;19.22;74.06;99643.28;3146694;28;20063;-65
2023/05/30 06:52:17;;;;;;;12.20;5.50;;;;;;;19.28;73.20;99644.56;3144649;28;20056;-65
2023/05/30 06:53:49;;;;;;;15.90;4.75;;;;;;;19.33;73.62;99652.94;3136655;28;20064;-64
2023/05/30 06:55:21;;;;;;;12.43;6.47;;;;;;;19.40;73.36;99645.34;3145384;28;20095;-64
2023/05/30 06:56:53;;;;;;;16.98;7.97;;;;;;;19.44;72.88;99641.50;3156783;28;20127;-64
2023/05/30 06:58:26;;;;;;;20.90;7.18;;;;;;;19.54;72.79;99642.38;3143593;28;20469;-64
2023/05/30 06:59:58;;;;;;;17.48;8.98;;;;;;;19.60;72.60;99648.94;3153788;28;20143;-64
2023/05/30 07:01:30;;;;;;;20.83;9.52;;;;;;;19.65;72.15;99649.41;3146139;28;20139;-63
2023/05/30 07:03:02;;;;;;;18.92;8.50;;;;;;;19.69;71.85;99646.38;3153076;28;20048;-65
2023/05/30 07:04:36;;;;;;;20.17;10.77;;;;;;;19.75;72.00;99645.84;3157336;28;20048;-65
2023/05/30 07:06:09;;;;;;;20.48;10.93;;;;;;;19.80;71.88;99655.19;3157177;28;20689;-64
2023/05/30 07:07:47;;;;;;;26.27;14.07;;;;;;;19.83;71.61;99657.56;3148968;28;20052;-64
2023/05/30 07:09:19;;;;;;;28.98;14.27;;;;;;;19.83;71.63;99665.50;3140116;28;20084;-62
2023/05/30 07:10:52;;;;;;;24.48;14.77;;;;;;;19.85;72.07;99669.69;3142453;28;20048;-65
2023/05/30 07:12:23;;;;;;;26.73;13.95;;;;;;;19.88;71.31;99665.94;3153673;28;20059;-63
2023/05/30 07:13:57;;;;;;;24.27;14.38;;;;;;;19.92;71.44;99668.19;3156146;28;20139;-62
2023/05/30 07:15:31;;;;;;;20.95;13.43;;;;;;;19.88;71.33;99669.44;3134719;28;20064;-63
2023/05/30 07:17:04;;;;;;;;;;;;;;;19.73;71.69;99671.56;3143576;28;20055;-63
2023/05/30 07:18:36;;;;;;;17.95;10.02;;;;;;;19.80;71.76;99676.34;3157226;28;19924;-63